createdAt,value
2017-05-02T00:01:44.050Z,95.70
2017-05-02T00:04:13.406Z,95.60
2017-05-02T00:06:42.348Z,95.60
2017-05-02T00:09:12.048Z,95.80
2017-05-02T00:11:41.749Z,95.80
2017-05-02T00:14:10.685Z,95.80
2017-05-02T00:16:40.056Z,95.80
2017-05-02T00:19:09.751Z,95.80
2017-05-02T00:21:39.458Z,96.00
2017-05-02T00:24:08.726Z,95.80
2017-05-02T00:26:37.666Z,95.80
2017-05-02T00:29:06.631Z,95.90
2017-05-02T00:31:35.909Z,95.80
2017-05-02T00:34:04.862Z,95.80
2017-05-02T00:36:33.799Z,95.80
2017-05-02T00:39:03.176Z,95.90
2017-05-02T00:41:32.134Z,96.00
2017-05-02T00:44:01.089Z,95.90
2017-05-02T00:46:30.374Z,95.90
2017-05-02T00:48:59.323Z,95.70
2017-05-02T00:51:28.281Z,95.60
2017-05-02T00:53:58.246Z,95.70
2017-05-02T00:56:27.212Z,95.60
2017-05-02T00:58:56.166Z,95.50
2017-05-02T01:01:25.875Z,95.70
2017-05-02T01:03:55.582Z,95.40
2017-05-02T01:06:24.941Z,95.50
2017-05-02T01:08:53.908Z,95.40
2017-05-02T01:11:22.877Z,95.30
2017-05-02T01:13:51.829Z,95.30
2017-05-02T01:16:20.779Z,95.50
2017-05-02T01:18:50.126Z,95.40
2017-05-02T01:21:19.072Z,95.40
2017-05-02T01:23:48.049Z,95.40
2017-05-02T01:26:17.016Z,95.50
2017-05-02T01:28:45.945Z,95.70
2017-05-02T01:31:15.276Z,95.50
2017-05-02T01:33:44.223Z,95.50
2017-05-02T01:36:13.174Z,95.50
2017-05-02T01:38:42.176Z,95.50
2017-05-02T01:41:11.985Z,95.70
2017-05-02T01:43:41.975Z,95.70
2017-05-02T01:46:10.972Z,95.60
2017-05-02T01:48:40.019Z,95.60
2017-05-02T01:51:09.408Z,95.70
2017-05-02T01:53:38.357Z,95.50
2017-05-02T01:56:07.313Z,95.70
2017-05-02T01:58:36.570Z,95.60
2017-05-02T02:01:05.530Z,95.60
2017-05-02T02:03:34.528Z,95.60
2017-05-02T02:06:03.780Z,95.70
2017-05-02T02:08:32.739Z,95.70
2017-05-02T02:11:02.440Z,95.60
2017-05-02T02:13:31.388Z,95.70
2017-05-02T02:16:00.351Z,95.70
2017-05-02T02:18:29.678Z,95.80
2017-05-02T02:20:58.658Z,95.70
2017-05-02T02:23:27.608Z,95.80
2017-05-02T02:25:56.859Z,95.80
2017-05-02T02:28:25.837Z,95.70
2017-05-02T02:30:54.806Z,95.80
2017-05-02T02:33:23.770Z,95.80
2017-05-02T02:35:52.731Z,95.70
2017-05-02T02:38:22.034Z,95.80
2017-05-02T02:40:50.992Z,95.70
2017-05-02T02:43:19.962Z,95.80
2017-05-02T02:45:49.214Z,95.80
2017-05-02T02:48:18.162Z,95.70
2017-05-02T02:50:47.113Z,95.80
2017-05-02T02:53:16.377Z,95.90
2017-05-02T02:55:45.342Z,95.80
2017-05-02T02:58:15.217Z,95.80
2017-05-02T03:00:45.320Z,95.70
2017-05-02T03:03:14.267Z,95.70
2017-05-02T03:05:43.197Z,95.70
2017-05-02T03:08:12.200Z,95.60
2017-05-02T03:10:41.920Z,95.60
2017-05-02T03:13:11.945Z,95.70
2017-05-02T03:15:41.575Z,95.70
2017-05-02T03:18:10.551Z,95.80
2017-05-02T03:20:39.521Z,95.90
2017-05-02T03:23:08.489Z,95.90
2017-05-02T03:25:37.780Z,95.90
2017-05-02T03:28:06.735Z,96.00
2017-05-02T03:30:35.689Z,96.10
2017-05-02T03:33:05.790Z,96.00
2017-05-02T03:35:34.737Z,95.90
2017-05-02T03:38:03.689Z,95.90
2017-05-02T03:40:33.418Z,95.80
2017-05-02T03:43:02.382Z,95.70
2017-05-02T03:45:31.668Z,95.60
2017-05-02T03:48:00.620Z,95.80
2017-05-02T03:50:29.595Z,95.80
2017-05-02T03:52:58.584Z,95.90
2017-05-02T03:55:27.545Z,95.80
2017-05-02T03:57:57.627Z,95.90
2017-05-02T04:00:26.588Z,95.60
2017-05-02T04:02:55.541Z,95.70
2017-05-02T04:05:24.819Z,95.80
2017-05-02T04:07:53.852Z,95.90
2017-05-02T04:10:22.809Z,96.00
2017-05-02T04:12:51.778Z,96.00
2017-05-02T04:15:20.729Z,96.10
2017-05-02T04:17:49.977Z,96.20
2017-05-02T04:20:18.914Z,96.10
2017-05-02T04:22:47.860Z,96.20
2017-05-02T04:25:16.844Z,96.20
2017-05-02T04:27:46.105Z,96.20
2017-05-02T04:30:15.405Z,96.20
2017-05-02T04:32:44.370Z,96.10
2017-05-02T04:35:13.382Z,96.10
2017-05-02T04:37:42.372Z,96.20
2017-05-02T04:40:11.330Z,96.10
2017-05-02T04:42:41.328Z,96.40
2017-05-02T04:45:10.286Z,96.00
2017-05-02T04:47:39.244Z,96.00
2017-05-02T04:50:08.229Z,95.80
2017-05-02T04:52:37.939Z,95.80
2017-05-02T04:55:07.954Z,95.90
2017-05-02T04:57:37.659Z,96.00
2017-05-02T05:00:07.408Z,96.00
2017-05-02T05:02:36.405Z,95.90
2017-05-02T05:05:05.402Z,95.80
2017-05-02T05:07:34.657Z,95.70
2017-05-02T05:10:04.357Z,95.60
2017-05-02T05:12:34.065Z,95.70
2017-05-02T05:15:03.804Z,95.60
2017-05-02T05:17:32.774Z,95.50
2017-05-02T05:20:02.070Z,95.50
2017-05-02T05:22:31.058Z,96.00
2017-05-02T05:25:00.763Z,95.70
2017-05-02T05:27:30.835Z,95.50
2017-05-02T05:29:59.789Z,95.60
2017-05-02T05:32:28.736Z,95.50
2017-05-02T05:34:57.723Z,95.40
2017-05-02T05:37:26.679Z,95.20
2017-05-02T05:39:55.987Z,95.30
2017-05-02T05:42:24.954Z,95.50
2017-05-02T05:44:53.909Z,95.60
2017-05-02T05:47:22.903Z,95.30
2017-05-02T05:49:52.515Z,95.50
2017-05-02T05:52:21.884Z,95.00
2017-05-02T05:54:50.746Z,95.30
2017-05-02T05:57:19.734Z,94.80
2017-05-02T05:59:48.965Z,94.90
2017-05-02T06:02:17.924Z,94.60
2017-05-02T06:04:46.991Z,94.00
2017-05-02T06:07:15.978Z,93.60
2017-05-02T06:09:44.909Z,93.50
2017-05-02T06:12:14.213Z,94.20
2017-05-02T06:14:43.186Z,93.80
2017-05-02T06:17:12.143Z,93.50
2017-05-02T06:19:42.213Z,93.20
2017-05-02T06:22:11.077Z,92.40
2017-05-02T06:24:40.064Z,91.70
2017-05-02T06:27:09.025Z,92.00
2017-05-02T06:29:38.731Z,91.80
2017-05-02T06:32:08.770Z,91.90
2017-05-02T06:34:37.718Z,92.30
2017-05-02T06:37:06.688Z,92.60
2017-05-02T06:39:35.951Z,92.40
2017-05-02T06:42:04.894Z,92.20
2017-05-02T06:44:34.618Z,91.30
2017-05-02T06:47:03.853Z,91.50
2017-05-02T06:49:32.825Z,91.50
2017-05-02T06:52:01.796Z,91.00
2017-05-02T06:54:31.492Z,91.40
2017-05-02T06:57:01.195Z,92.70
2017-05-02T06:59:30.466Z,92.20
2017-05-02T07:01:59.421Z,91.20
2017-05-02T07:04:28.404Z,91.50
2017-05-02T07:06:57.753Z,90.60
2017-05-02T07:09:26.702Z,91.60
2017-05-02T07:11:55.646Z,91.30
2017-05-02T07:14:24.808Z,90.60
2017-05-02T07:16:53.757Z,90.40
2017-05-02T07:19:23.759Z,89.80
2017-05-02T07:21:52.784Z,90.50
2017-05-02T07:24:21.756Z,90.50
2017-05-02T07:26:51.464Z,89.80
2017-05-02T07:29:20.433Z,90.00
2017-05-02T07:31:49.707Z,90.20
2017-05-02T07:34:18.659Z,89.80
2017-05-02T07:36:47.532Z,89.60
2017-05-02T07:39:16.563Z,90.00
2017-05-02T07:41:45.501Z,90.40
2017-05-02T07:44:15.561Z,89.10
2017-05-02T07:46:44.497Z,89.00
2017-05-02T07:49:13.449Z,89.20
2017-05-02T07:51:42.425Z,87.70
2017-05-02T07:54:11.381Z,88.40
2017-05-02T07:56:40.623Z,87.60
2017-05-02T07:59:09.591Z,88.20
2017-05-02T08:01:38.542Z,85.40
2017-05-02T08:04:07.836Z,85.80
2017-05-02T08:06:36.825Z,86.00
2017-05-02T08:09:05.783Z,84.20
2017-05-02T08:11:35.088Z,85.10
2017-05-02T08:14:04.033Z,86.00
2017-05-02T08:16:33.738Z,84.40
2017-05-02T08:19:03.453Z,84.10
2017-05-02T08:21:33.155Z,82.30
2017-05-02T08:24:03.297Z,81.80
2017-05-02T08:26:32.254Z,81.70
2017-05-02T08:29:01.227Z,81.60
2017-05-02T08:31:30.538Z,79.50
2017-05-02T08:33:59.498Z,79.40
2017-05-02T08:36:28.427Z,79.10
2017-05-02T08:38:58.524Z,78.20
2017-05-02T08:41:27.495Z,76.50
2017-05-02T08:43:56.465Z,76.70
2017-05-02T08:46:25.448Z,76.00
2017-05-02T08:48:54.430Z,75.40
2017-05-02T08:51:23.520Z,74.70
2017-05-02T08:53:52.472Z,75.60
2017-05-02T08:56:21.429Z,74.80
2017-05-02T08:58:50.757Z,75.50
2017-05-02T09:01:19.720Z,74.90
2017-05-02T09:03:48.685Z,74.40
2017-05-02T09:06:17.675Z,75.20
2017-05-02T09:08:46.645Z,74.40
2017-05-02T09:11:16.002Z,74.90
2017-05-02T09:13:44.968Z,76.00
2017-05-02T09:16:13.928Z,73.70
2017-05-02T09:18:43.637Z,74.10
2017-05-02T09:21:13.339Z,72.40
2017-05-02T09:23:43.314Z,71.40
2017-05-02T09:26:12.265Z,71.10
2017-05-02T09:28:41.215Z,69.90
2017-05-02T09:31:10.195Z,65.90
2017-05-02T09:33:39.165Z,68.00
2017-05-02T09:36:08.169Z,68.60
2017-05-02T09:38:37.155Z,66.60
2017-05-02T09:41:06.141Z,65.00
2017-05-02T09:43:35.115Z,66.40
2017-05-02T09:46:04.231Z,66.20
2017-05-02T09:48:33.229Z,65.80
2017-05-02T09:51:02.185Z,66.10
2017-05-02T09:53:31.263Z,67.00
2017-05-02T09:56:00.210Z,65.70
2017-05-02T09:58:29.179Z,67.10
2017-05-02T10:00:58.423Z,68.90
2017-05-02T10:03:28.122Z,69.40
2017-05-02T10:05:57.175Z,69.40
2017-05-02T10:08:26.151Z,68.10
2017-05-02T10:10:55.209Z,68.80
2017-05-02T10:13:25.051Z,69.40
2017-05-02T10:15:54.021Z,69.70
2017-05-02T10:18:23.837Z,69.00
2017-05-02T10:20:53.129Z,67.70
2017-05-02T10:23:22.848Z,66.80
2017-05-02T10:25:51.814Z,65.10
2017-05-02T10:28:21.520Z,61.80
2017-05-02T10:30:50.541Z,59.80
2017-05-02T10:33:19.520Z,59.60
2017-05-02T10:35:49.245Z,60.60
2017-05-02T10:38:18.332Z,61.40
2017-05-02T10:40:47.294Z,60.20
2017-05-02T10:43:16.243Z,58.50
2017-05-02T10:45:45.208Z,57.90
2017-05-02T10:48:14.551Z,57.30
2017-05-02T10:50:43.640Z,55.00
2017-05-02T10:53:12.537Z,53.50
2017-05-02T10:55:42.272Z,52.10
2017-05-02T10:58:11.915Z,53.40
2017-05-02T11:00:40.902Z,54.60
2017-05-02T11:03:10.181Z,53.20
2017-05-02T11:05:39.153Z,52.80
2017-05-02T11:08:08.095Z,50.90
2017-05-02T11:10:37.084Z,47.90
2017-05-02T11:13:06.028Z,48.40
2017-05-02T11:15:36.140Z,47.10
2017-05-02T11:21:01.322Z,48.90
2017-05-02T11:23:30.268Z,50.90
2017-05-02T11:25:59.965Z,50.30
2017-05-02T11:28:28.848Z,47.20
2017-05-02T11:30:57.854Z,45.40
2017-05-02T11:33:27.952Z,45.40
2017-05-02T11:35:56.906Z,43.80
2017-05-02T11:38:25.863Z,43.50
2017-05-02T11:40:55.097Z,42.00
2017-05-02T11:43:24.050Z,41.20
2017-05-02T11:45:53.015Z,41.60
2017-05-02T11:48:22.290Z,41.70
2017-05-02T11:50:51.247Z,41.60
2017-05-02T11:53:20.204Z,41.10
2017-05-02T11:55:50.289Z,41.00
2017-05-02T11:58:19.289Z,41.30
2017-05-02T12:00:48.239Z,39.70
2017-05-02T12:03:17.479Z,39.00
2017-05-02T12:05:46.438Z,39.40
2017-05-02T12:08:15.422Z,39.70
2017-05-02T12:10:44.751Z,39.20
2017-05-02T12:13:13.753Z,38.40
2017-05-02T12:15:42.715Z,38.20
2017-05-02T12:18:11.699Z,37.10
2017-05-02T12:20:40.663Z,36.10
2017-05-02T12:23:10.013Z,36.20
2017-05-02T12:25:39.030Z,35.80
2017-05-02T12:28:08.723Z,35.80
2017-05-02T12:30:37.715Z,34.20
2017-05-02T12:33:06.670Z,33.60
2017-05-02T12:35:35.980Z,34.70
2017-05-02T12:38:04.936Z,34.10
2017-05-02T12:40:33.894Z,34.10
2017-05-02T12:43:02.860Z,35.10
2017-05-02T12:45:31.846Z,33.20
2017-05-02T12:48:00.820Z,31.90
2017-05-02T12:50:29.779Z,31.40
2017-05-02T12:52:59.507Z,33.70
2017-05-02T12:57:57.754Z,33.40
2017-05-02T13:00:26.696Z,33.20
2017-05-02T13:02:55.647Z,32.70
2017-05-02T13:05:25.374Z,32.80
2017-05-02T13:07:54.337Z,31.90
2017-05-02T13:10:23.701Z,30.30
2017-05-02T13:12:52.653Z,30.70
2017-05-02T13:15:21.621Z,31.20
2017-05-02T13:17:50.591Z,31.50
2017-05-02T13:20:19.558Z,30.50
2017-05-02T13:22:48.545Z,30.00
2017-05-02T13:25:17.489Z,29.90
2017-05-02T13:27:47.574Z,30.20
2017-05-02T13:30:16.525Z,29.90
2017-05-02T13:32:45.490Z,29.90
2017-05-02T13:35:15.481Z,29.00
2017-05-02T13:37:44.442Z,30.00
2017-05-02T13:40:13.429Z,30.60
2017-05-02T13:42:42.408Z,31.80
2017-05-02T13:45:11.355Z,32.30
2017-05-02T13:47:41.031Z,30.50
2017-05-02T13:50:09.987Z,30.30
2017-05-02T13:52:39.336Z,30.90
2017-05-02T13:55:08.279Z,32.30
2017-05-02T13:57:37.242Z,33.50
2017-05-02T14:00:07.351Z,33.00
2017-05-02T14:02:36.203Z,31.70
2017-05-02T14:05:05.848Z,32.20
2017-05-02T14:07:34.867Z,31.20
2017-05-02T14:10:03.855Z,31.30
2017-05-02T14:12:33.184Z,30.80
2017-05-02T14:15:02.150Z,29.80
2017-05-02T14:17:31.123Z,29.00
2017-05-02T14:20:00.106Z,28.50
2017-05-02T14:22:29.809Z,28.20
2017-05-02T14:24:59.806Z,27.60
2017-05-02T14:27:28.787Z,27.40
2017-05-02T14:29:57.750Z,28.00
2017-05-02T14:32:26.757Z,28.10
2017-05-02T14:34:55.704Z,28.20
2017-05-02T14:37:25.062Z,29.10
2017-05-02T14:39:53.974Z,29.10
2017-05-02T14:42:23.680Z,28.50
2017-05-02T14:44:52.663Z,28.80
2017-05-02T14:47:21.622Z,28.40
2017-05-02T14:49:50.866Z,28.60
2017-05-02T14:52:20.573Z,28.50
2017-05-02T14:54:50.686Z,28.90
2017-05-02T14:57:20.369Z,28.20
2017-05-02T14:59:49.318Z,28.20
2017-05-02T15:02:18.328Z,28.10
2017-05-02T15:04:47.264Z,28.00
2017-05-02T15:07:16.525Z,27.90
2017-05-02T15:09:45.505Z,28.30
2017-05-02T15:12:14.475Z,27.80
2017-05-02T15:14:43.462Z,28.20
2017-05-02T15:17:12.402Z,28.90
2017-05-02T15:19:41.365Z,28.70
2017-05-02T15:22:10.341Z,28.80
2017-05-02T15:24:39.612Z,28.60
2017-05-02T15:27:08.624Z,28.70
2017-05-02T15:29:37.588Z,28.70
2017-05-02T15:32:07.307Z,28.60
2017-05-02T15:34:37.031Z,28.00
2017-05-02T15:37:06.357Z,28.20
2017-05-02T15:39:35.341Z,27.70
2017-05-02T15:42:04.300Z,28.30
2017-05-02T15:44:33.257Z,28.40
2017-05-02T15:47:02.213Z,28.70
2017-05-02T15:49:31.533Z,27.90
2017-05-02T15:52:00.501Z,27.50
2017-05-02T15:54:29.494Z,28.10
2017-05-02T15:56:58.479Z,27.80
2017-05-02T15:59:27.359Z,27.90
2017-05-02T16:01:56.541Z,28.10
2017-05-02T16:04:25.543Z,27.80
2017-05-02T16:06:54.502Z,27.80
2017-05-02T16:09:24.512Z,27.70
2017-05-02T16:11:53.467Z,28.00
2017-05-02T16:14:22.431Z,28.80
2017-05-02T16:16:51.337Z,29.00
2017-05-02T16:19:20.341Z,29.00
2017-05-02T16:21:49.328Z,29.20
2017-05-02T16:24:18.298Z,29.60
2017-05-02T16:26:47.623Z,29.20
2017-05-02T16:29:16.612Z,29.50
2017-05-02T16:31:45.603Z,29.70
2017-05-02T16:34:14.567Z,30.00
2017-05-02T16:36:43.529Z,29.70
2017-05-02T16:39:13.549Z,30.00
2017-05-02T16:41:43.256Z,30.20
2017-05-02T16:44:13.001Z,31.00
2017-05-02T16:46:41.996Z,31.60
2017-05-02T16:49:10.945Z,32.30
2017-05-02T16:51:39.913Z,32.10
2017-05-02T16:54:08.892Z,32.40
2017-05-02T16:56:38.177Z,33.00
2017-05-02T16:59:07.126Z,33.10
2017-05-02T17:01:36.073Z,32.80
2017-05-02T17:04:05.306Z,33.10
2017-05-02T17:06:34.913Z,33.10
2017-05-02T17:09:03.900Z,34.20
2017-05-02T17:11:33.984Z,34.00
2017-05-02T17:14:02.834Z,33.90
2017-05-02T17:16:31.838Z,34.40
2017-05-02T17:19:00.833Z,35.20
2017-05-02T17:21:29.785Z,35.70
2017-05-02T17:27:00.725Z,37.30
2017-05-02T17:29:29.963Z,37.90
2017-05-02T17:31:58.956Z,39.00
2017-05-02T17:34:27.945Z,40.10
2017-05-02T17:36:56.922Z,41.20
2017-05-02T17:39:25.893Z,41.70
2017-05-02T17:41:55.612Z,42.50
2017-05-02T17:44:24.502Z,43.10
2017-05-02T17:46:53.498Z,43.70
2017-05-02T17:49:22.471Z,44.30
2017-05-02T17:51:52.555Z,45.00
2017-05-02T17:54:21.516Z,45.80
2017-05-02T17:56:50.472Z,46.50
2017-05-02T17:59:19.796Z,47.20
2017-05-02T18:01:48.773Z,47.50
2017-05-02T18:04:17.750Z,48.20
2017-05-02T18:06:47.462Z,49.30
2017-05-02T18:09:16.444Z,49.40
2017-05-02T18:11:46.090Z,50.20
2017-05-02T18:14:15.077Z,50.20
2017-05-02T18:16:44.340Z,50.70
2017-05-02T18:19:13.368Z,51.30
2017-05-02T18:21:42.510Z,51.40
2017-05-02T18:24:12.347Z,51.60
2017-05-02T18:26:41.332Z,51.90
2017-05-02T18:29:11.393Z,52.20
2017-05-02T18:31:40.376Z,53.10
2017-05-02T18:34:09.357Z,52.80
2017-05-02T18:36:38.329Z,53.10
2017-05-02T18:39:07.310Z,53.40
2017-05-02T18:41:37.308Z,54.10
2017-05-02T18:44:06.346Z,54.50
2017-05-02T18:46:35.325Z,54.80
2017-05-02T18:49:04.638Z,55.50
2017-05-02T18:51:33.650Z,55.50
2017-05-02T18:54:02.640Z,55.50
2017-05-02T18:56:31.642Z,55.80
2017-05-02T18:59:00.611Z,56.30
2017-05-02T19:01:29.925Z,57.50
2017-05-02T19:03:58.893Z,57.60
2017-05-02T19:06:27.878Z,57.50
2017-05-02T19:08:57.205Z,57.90
2017-05-02T19:11:26.211Z,58.80
2017-05-02T19:13:55.194Z,59.70
2017-05-02T19:16:24.614Z,60.70
2017-05-02T19:18:54.340Z,62.10
2017-05-02T19:21:23.330Z,62.90
2017-05-02T19:23:52.675Z,63.80
2017-05-02T19:26:21.654Z,64.20
2017-05-02T19:28:50.665Z,64.70
2017-05-02T19:31:20.012Z,65.70
2017-05-02T19:33:49.026Z,67.00
2017-05-02T19:36:18.011Z,67.70
2017-05-02T19:38:48.261Z,68.10
2017-05-02T19:41:17.243Z,68.40
2017-05-02T19:43:46.234Z,68.80
2017-05-02T19:46:15.243Z,68.70
2017-05-02T19:48:44.233Z,69.10
2017-05-02T19:51:13.554Z,69.50
2017-05-02T19:53:42.541Z,69.90
2017-05-02T19:56:12.729Z,70.70
2017-05-02T19:58:42.074Z,70.90
2017-05-02T20:01:11.042Z,71.40
2017-05-02T20:03:40.003Z,72.10
2017-05-02T20:06:09.003Z,72.50
2017-05-02T20:08:37.984Z,72.90
2017-05-02T20:11:07.280Z,73.40
2017-05-02T20:13:36.267Z,73.70
2017-05-02T20:16:05.303Z,73.90
2017-05-02T20:18:34.239Z,74.20
2017-05-02T20:21:03.223Z,75.10
2017-05-02T20:23:32.601Z,75.70
2017-05-02T20:26:01.589Z,76.50
2017-05-02T20:28:30.557Z,77.00
2017-05-02T20:30:59.532Z,77.80
2017-05-02T20:33:28.487Z,77.40
2017-05-02T20:35:58.496Z,77.70
2017-05-02T20:38:28.217Z,78.10
2017-05-02T20:40:57.220Z,78.30
2017-05-02T20:43:26.222Z,78.70
2017-05-02T20:45:55.188Z,78.70
2017-05-02T20:48:24.487Z,78.60
2017-05-02T20:50:53.444Z,78.80
2017-05-02T20:53:22.425Z,78.70
2017-05-02T20:55:51.412Z,78.80
2017-05-02T20:58:20.398Z,79.20
2017-05-02T21:00:49.624Z,80.70
2017-05-02T21:03:19.247Z,81.80
2017-05-02T21:05:48.364Z,81.50
2017-05-02T21:08:17.356Z,81.80
2017-05-02T21:10:46.310Z,82.00
2017-05-02T21:13:16.072Z,82.30
2017-05-02T21:15:45.027Z,82.50
2017-05-02T21:18:13.899Z,82.50
2017-05-02T21:20:42.915Z,82.70
2017-05-02T21:23:11.917Z,82.80
2017-05-02T21:25:41.967Z,82.90
2017-05-02T21:28:10.928Z,83.00
2017-05-02T21:30:39.885Z,83.40
2017-05-02T21:33:09.583Z,83.50
2017-05-02T21:35:39.271Z,83.50
2017-05-02T21:38:08.545Z,83.40
2017-05-02T21:40:37.510Z,83.40
2017-05-02T21:43:06.454Z,83.50
2017-05-02T21:45:35.449Z,83.70
2017-05-02T21:48:04.432Z,83.70
2017-05-02T21:50:33.681Z,83.80
2017-05-02T21:53:02.626Z,83.80
2017-05-02T21:55:31.593Z,84.00
2017-05-02T21:58:00.558Z,84.20
2017-05-02T22:00:29.525Z,84.20
2017-05-02T22:02:59.592Z,84.40
2017-05-02T22:05:28.646Z,84.60
2017-05-02T22:07:57.597Z,84.90
2017-05-02T22:10:26.884Z,85.20
2017-05-02T22:12:55.851Z,85.40
2017-05-02T22:15:24.812Z,85.60
2017-05-02T22:17:53.788Z,85.70
2017-05-02T22:20:23.477Z,85.80
2017-05-02T22:22:52.874Z,85.70
2017-05-02T22:25:21.827Z,85.80
2017-05-02T22:27:50.757Z,85.80
2017-05-02T22:30:19.708Z,86.10
2017-05-02T22:32:48.682Z,86.30
2017-05-02T22:35:18.014Z,86.60
2017-05-02T22:37:46.959Z,86.50
2017-05-02T22:40:15.897Z,86.60
2017-05-02T22:42:44.900Z,86.60
2017-05-02T22:45:13.847Z,86.60
2017-05-02T22:47:43.078Z,86.60
2017-05-02T22:50:12.814Z,86.70
2017-05-02T22:52:42.539Z,87.00
2017-05-02T22:55:12.618Z,87.40
2017-05-02T22:57:41.577Z,87.80
2017-05-02T23:00:10.593Z,87.90
2017-05-02T23:02:39.573Z,87.80
2017-05-02T23:05:08.527Z,87.90
2017-05-02T23:07:37.855Z,88.30
2017-05-02T23:10:06.810Z,88.70
2017-05-02T23:12:36.502Z,89.00
2017-05-02T23:15:06.220Z,89.20
2017-05-02T23:17:35.849Z,89.50
2017-05-02T23:20:05.185Z,89.80
2017-05-02T23:22:34.161Z,90.00
2017-05-02T23:25:03.035Z,90.10
2017-05-02T23:27:32.044Z,90.20
2017-05-02T23:30:00.989Z,90.20
2017-05-02T23:32:30.962Z,90.20
2017-05-02T23:34:59.934Z,90.20
2017-05-02T23:37:28.906Z,90.30
2017-05-02T23:39:58.239Z,90.30
2017-05-02T23:42:27.158Z,90.30
2017-05-02T23:44:56.838Z,90.60
2017-05-02T23:47:25.830Z,90.40
2017-05-02T23:49:54.846Z,90.40
2017-05-02T23:52:24.218Z,90.30
2017-05-02T23:54:53.169Z,90.30
2017-05-02T23:57:22.126Z,90.20
2017-05-02T23:59:51.827Z,90.30
